Historyczne dane pomiarowe

Dodano dane terminowe – wersja testowa.

Dane z okresu 1951-2019

Wersja bazy: 1.34 [2019-03-16, lista zmian], aktualizacja planowana na 2019-04-15

Dane meteo z obszaru Polski uzyskane na podstawie danych udostępnionych przez Instytut Meteorologii i Gospodarki Wodnej – Państwowy Instytut Badawczy.

 

Wybierz Datę:    

       

TemperaturaWilgotnośćWiatrCiśnienieOpadyŚniegCzas trwania zjawisk
 Stacja t tx tn tng RH VA  wxwx mslp ppp RRR   cm mm wxwxwxwxwxwxwx
1961-08-14 14.0 19.4 8.3- 78.8- 4.3 0.0---- 1.2------------
1961-08-13 14.5 18.6 11.0- 76.0- 4.3 3.3---- 0.0------------
1961-08-12 16.0 21.6 12.6- 85.5- 8.0 0.3---- 0.0------------
1961-08-11 16.7 21.9 16.1- 94.8- 6.0 0.0---- 2.2------------
1961-08-10 17.7 22.2 13.6- 93.8- 8.0 1.0---- 5.6------------
1961-08-09 17.9 23.5 12.0- 80.0- 2.7 0.3---- 0.0------------
1961-08-08 15.9 21.7 6.7- 79.0- 2.3 0.3---- 0.0------------
1961-08-07 15.4 24.3 13.1- 90.3- 5.3 1.0---- 0.9------------
1961-08-06 21.2 28.3 16.9- 79.5- 3.7 2.3---- 3.2------------
1961-08-05 19.3 24.8 14.8- 78.5- 5.3 2.0---- 0.0------------
1961-08-04 14.2 16.2 5.7- 89.0- 8.0 0.7---- 1.1------------
1961-08-03 13.4 20.5 10.6- 88.0- 6.7 1.0---- 1.3------------
1961-08-02 15.8 20.6 9.4- 84.0- 7.7 0.0---- 0.3------------
1961-08-01 14.1 18.8 11.8- 84.8- 5.3 2.7---- 1.2------------
1961-07-31 13.3 15.3 12.3- 91.8- 8.0 2.3---- 40.5------------
1961-07-30 14.0 17.6 9.9- 90.3- 6.3 0.3---- 5.1------------
1961-07-29 13.6 17.1 9.8- 82.3- 7.3 1.0---- 0.0------------
1961-07-28 13.9 16.5 12.3- 91.0- 8.0 0.7---- 10.1------------
1961-07-27 17.1 22.0 14.8- 77.5- 6.7 1.7---- 0.0------------
1961-07-26 19.2 23.5 13.5- 59.8- 8.0 1.3---- 0.2------------
1961-07-25 14.9 17.7 11.8- 76.3- 8.0 1.7---- 2.5------------
1961-07-24 14.0 16.8 11.8- 77.3- 8.0 1.0---- 0.0------------
1961-07-23 14.2 16.5 12.8- 81.5- 7.7 1.0---- 0.7------------
1961-07-22 14.3 17.5 13.4- 87.5- 8.0 1.7---- 0.8------------
1961-07-21 14.4 16.5 13.8- 94.8- 7.0 1.3---- 13.2------------
1961-07-20 16.0 20.5 12.3- 73.0- 7.3 1.7---- 4.6------------
1961-07-19 15.5 20.3 10.8- 77.3- 7.0 1.0---- 0.0------------
1961-07-18 14.7 19.5 12.8- 86.3- 7.7 1.0---- 0.3------------
1961-07-17 14.4 17.0 7.4- 81.5- 7.0 0.3---- 1.6------------
1961-07-16 15.1 22.5 12.0- 82.5- 5.3 1.3---- 0.2------------
1961-07-15 16.3 24.0 12.8- 78.8- 5.0 0.7---- 0.0------------
1961-07-14 14.3 18.5 11.3- 74.0- 7.3 3.7---- 1.2------------
1961-07-13 19.1 27.2 15.8- 85.3- 7.0 1.0---- 9.9------------
1961-07-12 19.2 25.5 12.8- 79.5- 4.0 1.0---- 0.0------------
1961-07-11 16.3 20.5 9.8- 78.8- 5.7 1.0---- 15.5------------
1961-07-10 12.9 17.1 11.3- 85.5- 7.3 1.0---- 7.8------------
1961-07-09 14.6 18.0 13.8- 91.8- 7.7 1.3---- 11.8------------
1961-07-08 16.6 23.0 9.4- 70.5- 6.3 1.0---- 5.5------------
1961-07-07 12.6 17.4 10.1- 77.8- 6.0 2.0---- 0.0------------
1961-07-06 12.5 17.5 7.4- 93.8- 7.0 2.7---- 4.1------------
1961-07-05 12.9 17.0 11.4- 65.3- 4.3 2.7---- 3.5------------
1961-07-04 15.2 19.0 13.2- 84.5- 7.7 1.3---- 4.6------------
1961-07-03 22.3 33.3 14.8- 66.8- 3.7 1.0---- 0.0------------
1961-07-02 22.7 31.8 7.9- 59.8- 0.0 0.3---- 0.0------------
1961-07-01 21.0 29.5 8.2- 54.5- 0.3 0.3---- 0.0------------
1961-06-30 19.5 26.2 7.2- 63.8- 0.0 1.0---- 0.0------------
1961-06-29 16.5 22.3 9.7- 68.3- 3.7 1.7---- 0.0------------
1961-06-28 15.4 20.1 11.7- 62.8- 6.0 4.7---- 0.0------------
1961-06-27 19.5 25.2 15.8- 83.5- 7.7 1.0---- 1.1------------
1961-06-26 22.8 29.7 11.2- 57.3- 0.3 1.0---- 0.0------------
1961-06-25 21.9 28.5 12.1- 60.3- 1.7 2.0---- 0.0------------
1961-06-24 19.1 24.5 11.8- 65.0- 6.0 2.7---- 0.0------------
1961-06-23 18.0 22.3 11.6- 63.3- 6.3 2.7---- 0.0------------
1961-06-22 16.8 22.8 8.8- 67.3- 0.7 0.3---- 0.0------------
1961-06-21 14.1 20.5 7.1- 68.8- 4.7 0.3---- 0.0------------
1961-06-20 14.3 20.3 7.9- 61.5- 1.0 1.3---- 0.0------------
1961-06-19 16.1 20.5 14.0- 56.0- 2.0 3.7---- 0.0------------
1961-06-18 21.1 28.4 14.7- 66.8- 5.0 3.7---- 0.2------------
1961-06-17 18.2 23.7 8.0- 69.8- 3.3 0.3---- 0.0------------
1961-06-16 13.9 18.1 9.5- 72.8- 5.7 0.7---- 0.0------------
1304.4 ms

 

Źródłem pochodzenia danych jest Instytut Meteorologii i Gospodarki Wodnej – Państwowy Instytut Badawczy. Dane Instytutu Meteorologii i Gospodarki Wodnej – Państwowego Instytutu Badawczego zostały przetworzone.

Dane źródłowe można odnaleźć na stronie https://dane.imgw.pl